createdAt,value
2023-01-13T00:02:27.702Z,8.10
2023-01-13T00:05:01.233Z,8.50
2023-01-13T00:07:34.675Z,8.30
2023-01-13T00:10:11.823Z,7.30
2023-01-13T00:12:46.005Z,7.40
2023-01-13T00:15:19.781Z,8.00
2023-01-13T00:17:53.426Z,7.70
2023-01-13T00:20:26.837Z,7.90
2023-01-13T00:23:01.482Z,6.70
2023-01-13T00:25:35.399Z,6.00
2023-01-13T00:28:10.077Z,6.50
2023-01-13T00:30:43.520Z,7.30
2023-01-13T00:33:16.837Z,7.40
2023-01-13T00:36:13.538Z,8.40
2023-01-13T00:38:47.891Z,5.70
2023-01-13T00:41:23.436Z,6.00
2023-01-13T00:43:57.007Z,6.20
2023-01-13T00:46:30.441Z,8.50
2023-01-13T00:49:03.863Z,11.40
2023-01-13T00:51:37.821Z,9.20
2023-01-13T00:54:11.838Z,9.50
2023-01-13T00:56:45.637Z,5.80
2023-01-13T00:59:19.446Z,7.80
2023-01-13T01:01:53.217Z,8.00
2023-01-13T01:04:27.145Z,5.30
2023-01-13T01:07:00.615Z,6.40
2023-01-13T01:09:34.899Z,6.70
2023-01-13T01:12:09.391Z,8.60
2023-01-13T01:14:42.838Z,5.80
2023-01-13T01:17:16.329Z,5.20
2023-01-13T01:19:50.310Z,5.30
2023-01-13T01:22:23.755Z,5.40
2023-01-13T01:24:57.454Z,5.30
2023-01-13T01:27:31.009Z,6.00
2023-01-13T01:30:04.615Z,4.80
2023-01-13T01:32:39.175Z,5.40
2023-01-13T01:35:13.411Z,4.60
2023-01-13T01:37:46.851Z,5.70
2023-01-13T01:40:20.915Z,6.60
2023-01-13T01:43:11.869Z,4.40
2023-01-13T01:45:45.315Z,4.60
2023-01-13T01:48:18.807Z,5.20
2023-01-13T01:50:52.675Z,5.80
2023-01-13T01:53:29.702Z,4.30
2023-01-13T01:56:03.812Z,3.90
2023-01-13T01:58:45.833Z,4.40
2023-01-13T02:01:19.968Z,4.60
2023-01-13T02:04:00.819Z,4.30
2023-01-13T02:06:34.255Z,4.60
2023-01-13T02:09:08.274Z,3.80
2023-01-13T02:11:59.369Z,3.50
2023-01-13T02:14:34.621Z,4.30
2023-01-13T02:17:28.432Z,4.40
2023-01-13T02:21:52.512Z,3.60
2023-01-13T02:27:25.642Z,3.50
2023-01-13T02:31:00.037Z,3.30
2023-01-13T02:34:08.852Z,3.80
2023-01-13T02:37:08.417Z,3.50
2023-01-13T02:40:10.137Z,3.60
2023-01-13T02:43:28.788Z,3.30
2023-01-13T02:46:29.336Z,2.60
2023-01-13T02:49:35.621Z,3.00
2023-01-13T02:52:37.233Z,3.70
2023-01-13T02:55:35.556Z,2.80
2023-01-13T02:58:33.673Z,2.60
2023-01-13T03:01:27.754Z,2.70
2023-01-13T03:04:53.985Z,2.60
2023-01-13T03:08:06.171Z,2.80
2023-01-13T03:11:08.630Z,4.20
2023-01-13T03:14:09.559Z,2.80
2023-01-13T03:17:24.293Z,3.30
2023-01-13T03:20:25.690Z,2.90
2023-01-13T03:23:29.763Z,2.00
2023-01-13T03:26:33.260Z,2.60
2023-01-13T03:29:34.837Z,2.40
2023-01-13T03:32:34.421Z,2.40
2023-01-13T03:35:32.607Z,2.50
2023-01-13T03:38:32.756Z,2.70
2023-01-13T03:41:36.298Z,4.00
2023-01-13T03:44:35.485Z,2.70
2023-01-13T03:47:37.614Z,4.00
2023-01-13T03:50:37.307Z,3.30
2023-01-13T03:53:35.651Z,3.60
2023-01-13T03:56:37.250Z,2.70
2023-01-13T03:59:35.573Z,3.20
2023-01-13T04:02:43.474Z,2.20
2023-01-13T04:05:43.972Z,2.40
2023-01-13T04:08:41.612Z,4.90
2023-01-13T04:11:20.806Z,2.60
2023-01-13T04:14:17.480Z,2.70
2023-01-13T04:17:11.539Z,2.80
2023-01-13T04:20:05.799Z,1.80
2023-01-13T04:22:59.480Z,3.30
2023-01-13T04:25:57.682Z,2.10
2023-01-13T04:28:52.077Z,3.00
2023-01-13T04:31:46.030Z,2.40
2023-01-13T04:34:40.046Z,2.10
2023-01-13T04:37:34.397Z,4.00
2023-01-13T04:40:28.385Z,2.00
2023-01-13T04:43:22.051Z,1.80
2023-01-13T04:46:16.251Z,2.10
2023-01-13T04:49:10.370Z,2.40
2023-01-13T04:52:04.167Z,1.70
2023-01-13T04:54:58.939Z,1.30
2023-01-13T04:57:52.749Z,2.50
2023-01-13T05:00:46.772Z,2.30
2023-01-13T05:03:40.590Z,2.00
2023-01-13T05:06:35.228Z,2.20
2023-01-13T05:09:29.019Z,2.20
2023-01-13T05:12:40.204Z,2.70
2023-01-13T05:15:51.681Z,2.00
2023-01-13T05:18:45.976Z,1.80
2023-01-13T05:21:57.235Z,1.80
2023-01-13T05:25:08.769Z,1.90
2023-01-13T05:28:03.206Z,2.70
2023-01-13T05:30:58.113Z,1.90
2023-01-13T05:33:51.903Z,1.70
2023-01-13T05:36:45.649Z,1.80
2023-01-13T05:39:54.086Z,2.60
2023-01-13T05:43:05.786Z,2.50
2023-01-13T05:46:04.346Z,2.90
2023-01-13T05:48:59.896Z,6.60
2023-01-13T05:51:53.666Z,2.40
2023-01-13T05:54:47.330Z,2.20
2023-01-13T05:57:41.111Z,2.30
2023-01-13T06:00:34.874Z,4.40
2023-01-13T06:03:28.777Z,2.70
2023-01-13T06:06:22.592Z,4.50
2023-01-13T06:09:16.771Z,2.90
2023-01-13T06:12:13.618Z,2.90
2023-01-13T06:15:09.147Z,2.80
2023-01-13T06:18:05.214Z,10.40
2023-01-13T06:20:59.169Z,2.40
2023-01-13T06:23:52.972Z,4.80
2023-01-13T06:26:47.145Z,2.40
2023-01-13T06:29:41.430Z,3.20
2023-01-13T06:32:40.315Z,2.80
2023-01-13T06:35:38.638Z,2.10
2023-01-13T06:38:36.762Z,2.20
2023-01-13T06:41:55.325Z,4.30
2023-01-13T06:44:50.168Z,3.70
2023-01-13T06:47:44.151Z,2.70
2023-01-13T06:50:37.863Z,5.10
2023-01-13T06:53:31.783Z,2.80
2023-01-13T06:56:25.574Z,3.20
2023-01-13T06:59:09.922Z,3.00
2023-01-13T07:02:04.084Z,2.60
2023-01-13T07:04:57.966Z,2.30
2023-01-13T07:07:51.758Z,2.70
2023-01-13T07:10:45.719Z,3.30
2023-01-13T07:13:57.733Z,2.40
2023-01-13T07:16:52.941Z,3.20
2023-01-13T07:19:47.014Z,3.90
2023-01-13T07:22:40.621Z,4.90
2023-01-13T07:25:34.518Z,3.50
2023-01-13T07:28:31.328Z,2.40
2023-01-13T07:31:26.163Z,2.60
2023-01-13T07:34:20.073Z,3.60
2023-01-13T07:37:13.951Z,3.80
2023-01-13T07:40:10.261Z,5.20
2023-01-13T07:43:21.692Z,5.00
2023-01-13T07:46:15.577Z,5.30
2023-01-13T07:49:10.455Z,4.80
2023-01-13T07:52:04.497Z,5.00
2023-01-13T07:54:58.517Z,5.50
2023-01-13T07:57:53.693Z,6.00
2023-01-13T08:00:47.547Z,4.50
2023-01-13T08:03:41.718Z,6.30
2023-01-13T08:06:36.717Z,3.80
2023-01-13T08:09:30.508Z,3.90
2023-01-13T08:12:42.190Z,4.90
2023-01-13T08:15:48.762Z,4.20
2023-01-13T08:18:42.962Z,3.90
2023-01-13T08:21:36.804Z,5.40
2023-01-13T08:24:30.491Z,4.00
2023-01-13T08:27:24.105Z,4.50
2023-01-13T08:30:18.977Z,5.70
2023-01-13T08:33:15.062Z,4.60
2023-01-13T08:35:59.436Z,3.70
2023-01-13T08:38:53.172Z,5.10
2023-01-13T08:41:56.310Z,4.20
2023-01-13T08:44:47.736Z,4.40
2023-01-13T08:47:41.455Z,4.50
2023-01-13T08:50:35.284Z,4.40
2023-01-13T08:53:26.209Z,4.10
2023-01-13T08:56:20.068Z,5.40
2023-01-13T08:59:16.464Z,5.00
2023-01-13T09:01:53.149Z,8.60
2023-01-13T09:04:32.219Z,8.30
2023-01-13T09:07:26.214Z,8.10
2023-01-13T09:10:20.052Z,14.00
2023-01-13T09:13:17.939Z,8.20
2023-01-13T09:16:12.308Z,11.60
2023-01-13T09:19:06.115Z,8.00
2023-01-13T09:22:00.200Z,12.80
2023-01-13T09:24:54.252Z,7.80
2023-01-13T09:27:48.116Z,7.70
2023-01-13T09:30:42.442Z,11.30
2023-01-13T09:33:56.215Z,7.20
2023-01-13T09:36:50.062Z,9.30
2023-01-13T09:39:42.254Z,7.40
2023-01-13T09:43:06.140Z,7.50
2023-01-13T09:46:06.918Z,9.40
2023-01-13T09:49:03.743Z,6.90
2023-01-13T09:52:10.851Z,6.40
2023-01-13T09:55:12.576Z,5.80
2023-01-13T09:58:17.961Z,5.50
2023-01-13T10:01:25.217Z,6.50
2023-01-13T10:04:19.940Z,7.30
2023-01-13T10:07:17.034Z,6.50
2023-01-13T10:10:21.251Z,5.90
2023-01-13T10:13:24.813Z,6.90
2023-01-13T10:16:36.672Z,11.00
2023-01-13T10:19:37.344Z,5.10
2023-01-13T10:22:48.554Z,4.40
2023-01-13T10:25:59.045Z,6.20
2023-01-13T10:31:50.310Z,6.20
2023-01-13T10:34:56.689Z,5.40
2023-01-13T10:38:00.921Z,4.90
2023-01-13T10:44:04.476Z,5.20
2023-01-13T10:48:18.682Z,5.00
2023-01-13T10:51:24.358Z,5.10
2023-01-13T10:54:56.685Z,7.20
2023-01-13T10:57:46.282Z,5.80
2023-01-13T11:00:36.071Z,5.60
2023-01-13T11:03:27.263Z,4.30
2023-01-13T11:06:24.794Z,10.40
2023-01-13T11:09:21.772Z,4.50
2023-01-13T11:12:31.032Z,3.60
2023-01-13T11:15:29.690Z,4.30
2023-01-13T11:18:28.418Z,7.50
2023-01-13T11:21:25.943Z,5.30
2023-01-13T11:24:15.074Z,5.40
2023-01-13T11:26:59.450Z,3.40
2023-01-13T11:30:08.993Z,6.60
2023-01-13T11:33:19.997Z,4.20
2023-01-13T11:36:20.516Z,5.80
2023-01-13T11:39:22.286Z,5.10
2023-01-13T11:42:37.754Z,9.50
2023-01-13T11:45:36.992Z,5.90
2023-01-13T11:48:31.314Z,6.20
2023-01-13T11:51:33.204Z,7.10
2023-01-13T11:54:43.055Z,6.10
2023-01-13T11:58:15.630Z,7.30
2023-01-13T12:01:20.936Z,4.30
2023-01-13T12:04:27.003Z,3.90
2023-01-13T12:07:27.081Z,5.20
2023-01-13T12:10:47.063Z,5.70
2023-01-13T12:13:51.914Z,5.00
2023-01-13T12:16:48.817Z,4.80
2023-01-13T12:19:38.583Z,4.80
2023-01-13T12:22:33.418Z,4.20
2023-01-13T12:25:33.897Z,6.60
2023-01-13T12:28:30.437Z,4.90
2023-01-13T12:31:21.895Z,24.00
2023-01-13T12:34:41.795Z,28.90
2023-01-13T12:37:44.033Z,60.00
2023-01-13T12:40:55.766Z,75.60
2023-01-13T12:44:07.230Z,35.90
2023-01-13T12:46:59.465Z,33.40
2023-01-13T12:49:34.644Z,36.70
2023-01-13T12:52:24.461Z,23.40
2023-01-13T12:55:20.924Z,36.80
2023-01-13T12:58:18.188Z,27.70
2023-01-13T13:01:14.933Z,46.20
2023-01-13T13:04:11.964Z,34.20
2023-01-13T13:07:11.888Z,26.90
2023-01-13T13:10:05.972Z,31.40
2023-01-13T13:13:17.829Z,29.20
2023-01-13T13:16:46.851Z,33.90
2023-01-13T13:19:44.788Z,23.80
2023-01-13T13:22:50.692Z,30.10
2023-01-13T13:25:59.664Z,29.40
2023-01-13T13:29:06.043Z,25.60
2023-01-13T13:32:35.582Z,25.00
2023-01-13T13:35:42.575Z,19.80
2023-01-13T13:39:10.904Z,17.70
2023-01-13T13:42:31.547Z,24.70
2023-01-13T13:45:43.585Z,21.70
2023-01-13T13:48:33.789Z,22.30
2023-01-13T13:51:28.135Z,18.00
2023-01-13T13:54:21.702Z,22.20
2023-01-13T13:57:19.848Z,23.20
2023-01-13T13:59:57.407Z,20.80
2023-01-13T14:02:52.525Z,18.00
2023-01-13T14:05:57.655Z,24.50
2023-01-13T14:08:50.557Z,20.30
2023-01-13T14:11:42.322Z,19.70
2023-01-13T14:14:31.763Z,20.10
2023-01-13T14:17:25.841Z,17.20
2023-01-13T14:20:18.207Z,18.90
2023-01-13T14:23:15.449Z,27.00
2023-01-13T14:26:12.194Z,34.00
2023-01-13T14:29:03.107Z,45.20
2023-01-13T14:31:54.890Z,36.80
2023-01-13T14:34:44.545Z,31.00
2023-01-13T14:37:39.236Z,34.50
2023-01-13T14:40:46.137Z,21.30
2023-01-13T14:43:55.999Z,29.50
2023-01-13T14:46:47.231Z,22.90
2023-01-13T14:49:40.777Z,26.30
2023-01-13T14:52:36.031Z,22.40
2023-01-13T14:55:30.885Z,27.40
2023-01-13T14:58:28.271Z,24.00
2023-01-13T15:01:49.332Z,24.10
2023-01-13T15:04:39.001Z,20.50
2023-01-13T15:07:25.754Z,24.80
2023-01-13T15:10:17.899Z,20.70
2023-01-13T15:13:22.414Z,21.60
2023-01-13T15:16:22.177Z,22.20
2023-01-13T15:19:11.807Z,21.50
2023-01-13T15:22:02.382Z,18.20
2023-01-13T15:24:51.940Z,17.60
2023-01-13T15:27:33.281Z,21.30
2023-01-13T15:30:26.454Z,17.70
2023-01-13T15:33:00.180Z,17.50
2023-01-13T15:35:53.762Z,24.30
2023-01-13T15:38:43.230Z,17.20
2023-01-13T15:41:51.138Z,17.30
2023-01-13T15:44:49.210Z,17.00
2023-01-13T15:47:24.802Z,17.80
2023-01-13T15:50:17.578Z,16.40
2023-01-13T15:53:07.238Z,14.40
2023-01-13T15:55:59.272Z,16.70
2023-01-13T15:58:48.730Z,16.00
2023-01-13T16:01:38.442Z,17.40
2023-01-13T16:04:28.145Z,17.20
2023-01-13T16:07:19.822Z,14.70
2023-01-13T16:10:18.860Z,13.20
2023-01-13T16:13:08.578Z,14.90
2023-01-13T16:16:00.067Z,11.50
2023-01-13T16:18:50.784Z,11.80
2023-01-13T16:21:40.215Z,13.10
2023-01-13T16:24:09.657Z,15.70
2023-01-13T16:26:59.242Z,13.70
2023-01-13T16:29:52.198Z,13.40
2023-01-13T16:32:21.702Z,13.40
2023-01-13T16:35:11.578Z,13.70
2023-01-13T16:38:01.170Z,15.20
2023-01-13T16:40:51.588Z,13.60
2023-01-13T16:46:26.386Z,15.40
2023-01-13T16:49:20.609Z,13.40
2023-01-13T16:52:14.411Z,14.80
2023-01-13T16:55:10.038Z,12.60
2023-01-13T16:58:02.395Z,12.70
2023-01-13T17:00:54.758Z,12.60
2023-01-13T17:03:51.365Z,14.80
2023-01-13T17:06:53.143Z,14.20
2023-01-13T17:09:48.899Z,13.20
2023-01-13T17:12:43.231Z,10.70
2023-01-13T17:15:37.838Z,11.90
2023-01-13T17:18:32.520Z,11.10
2023-01-13T17:21:26.719Z,13.20
2023-01-13T17:24:20.893Z,11.10
2023-01-13T17:27:17.355Z,10.30
2023-01-13T17:30:15.162Z,11.10
2023-01-13T17:33:09.368Z,10.20
2023-01-13T17:36:08.326Z,10.70
2023-01-13T17:39:02.364Z,11.20
2023-01-13T17:42:32.175Z,10.30
2023-01-13T17:48:10.460Z,12.60
2023-01-13T17:51:06.630Z,10.00
2023-01-13T17:56:13.863Z,11.60
2023-01-13T18:01:50.508Z,10.00
2023-01-13T18:04:45.868Z,10.60
2023-01-13T18:07:39.596Z,10.20
2023-01-13T18:10:33.495Z,8.90
2023-01-13T18:13:27.725Z,9.80
2023-01-13T18:16:22.613Z,8.90
2023-01-13T18:19:36.377Z,9.20
2023-01-13T18:22:47.662Z,11.00
2023-01-13T18:26:01.098Z,9.40
2023-01-13T18:28:54.916Z,9.50
2023-01-13T18:31:48.665Z,8.30
2023-01-13T18:34:43.779Z,8.40
2023-01-13T18:37:40.437Z,9.40
2023-01-13T18:40:34.115Z,9.60
2023-01-13T18:43:27.903Z,8.80
2023-01-13T18:46:22.787Z,8.70
2023-01-13T18:49:16.642Z,9.70
2023-01-13T18:52:10.619Z,9.10
2023-01-13T18:55:04.694Z,9.10
2023-01-13T18:57:59.075Z,11.30
2023-01-13T19:01:01.059Z,10.90
2023-01-13T19:04:00.122Z,9.40
2023-01-13T19:07:00.457Z,8.40
2023-01-13T19:09:56.395Z,9.40
2023-01-13T19:12:50.087Z,7.80
2023-01-13T19:15:43.844Z,8.50
2023-01-13T19:18:39.279Z,9.90
2023-01-13T19:21:33.244Z,9.00
2023-01-13T19:24:27.186Z,12.60
2023-01-13T19:27:22.825Z,9.30
2023-01-13T19:30:18.469Z,9.70
2023-01-13T19:33:12.284Z,11.80
2023-01-13T19:36:07.647Z,8.60
2023-01-13T19:39:01.506Z,8.40
2023-01-13T19:42:13.085Z,11.60
2023-01-13T19:45:13.427Z,7.60
2023-01-13T19:48:08.560Z,8.90
2023-01-13T19:51:05.907Z,10.40
2023-01-13T19:54:00.682Z,10.60
2023-01-13T19:56:54.601Z,9.80
2023-01-13T19:59:48.311Z,8.80
2023-01-13T20:02:48.016Z,9.00
2023-01-13T20:05:43.104Z,9.40
2023-01-13T20:08:36.766Z,8.20
2023-01-13T20:11:33.541Z,10.70
2023-01-13T20:14:27.944Z,9.10
2023-01-13T20:17:23.187Z,11.50
2023-01-13T20:20:18.521Z,8.50
2023-01-13T20:23:13.203Z,8.60
2023-01-13T20:26:10.921Z,7.90
2023-01-13T20:29:05.015Z,8.50
2023-01-13T20:31:59.681Z,9.30
2023-01-13T20:34:38.940Z,9.20
2023-01-13T20:37:32.893Z,10.10
2023-01-13T20:40:26.772Z,9.80
2023-01-13T20:43:20.462Z,10.20
2023-01-13T20:46:14.316Z,7.30
2023-01-13T20:49:10.556Z,8.50
2023-01-13T20:52:09.289Z,10.00
2023-01-13T20:55:03.116Z,9.10
2023-01-13T20:57:56.849Z,9.30
2023-01-13T21:00:51.019Z,10.20
2023-01-13T21:03:45.058Z,9.10
2023-01-13T21:06:39.044Z,9.00
2023-01-13T21:09:33.256Z,9.60
2023-01-13T21:12:44.503Z,8.70
2023-01-13T21:15:38.482Z,18.60
2023-01-13T21:19:06.291Z,23.90
2023-01-13T21:22:00.153Z,14.10
2023-01-13T21:24:53.997Z,13.10
2023-01-13T21:27:47.623Z,25.90
2023-01-13T21:30:41.397Z,22.00
2023-01-13T21:33:35.425Z,21.80
2023-01-13T21:36:30.695Z,26.20
2023-01-13T21:39:24.580Z,23.30
2023-01-13T21:42:36.477Z,23.40
2023-01-13T21:45:49.614Z,17.20
2023-01-13T21:48:43.729Z,16.80
2023-01-13T21:51:38.021Z,16.00
2023-01-13T21:54:31.997Z,15.90
2023-01-13T21:57:27.329Z,13.80
2023-01-13T22:00:24.852Z,18.30
2023-01-13T22:03:19.530Z,16.70
2023-01-13T22:06:13.291Z,13.20
2023-01-13T22:09:07.441Z,15.00
2023-01-13T22:12:01.509Z,15.20
2023-01-13T22:14:55.637Z,12.60
2023-01-13T22:17:53.297Z,13.20
2023-01-13T22:20:47.230Z,12.80
2023-01-13T22:23:40.991Z,15.10
2023-01-13T22:26:34.954Z,14.10
2023-01-13T22:29:28.755Z,10.80
2023-01-13T22:32:23.650Z,12.90
2023-01-13T22:35:19.132Z,12.60
2023-01-13T22:38:13.095Z,13.10
2023-01-13T22:41:09.877Z,10.70
2023-01-13T22:44:03.709Z,10.20
2023-01-13T22:46:57.430Z,10.30
2023-01-13T22:49:51.324Z,11.10
2023-01-13T22:52:45.052Z,9.80
2023-01-13T22:55:38.715Z,11.50
2023-01-13T22:58:32.707Z,9.30
2023-01-13T23:01:29.733Z,10.80
2023-01-13T23:04:23.588Z,9.90
2023-01-13T23:07:17.565Z,10.80
2023-01-13T23:10:13.882Z,10.60
2023-01-13T23:13:07.665Z,8.60
2023-01-13T23:16:05.933Z,9.10
2023-01-13T23:19:02.365Z,10.90
2023-01-13T23:21:56.058Z,9.60
2023-01-13T23:24:49.932Z,9.30
2023-01-13T23:27:43.663Z,9.70
2023-01-13T23:30:41.727Z,9.10
2023-01-13T23:33:35.594Z,8.60
2023-01-13T23:36:31.262Z,8.70
2023-01-13T23:39:25.342Z,11.00
2023-01-13T23:42:19.082Z,8.60
2023-01-13T23:45:15.283Z,9.90
2023-01-13T23:48:09.590Z,6.60
2023-01-13T23:51:05.470Z,8.50
2023-01-13T23:53:59.980Z,9.30
2023-01-13T23:56:54.951Z,9.70
2023-01-13T23:59:48.854Z,6.80
